Time,TemperatureF,DewpointF,PressureIn,WindDirection,WindDirectionDegrees,WindSpeedMPH,WindSpeedGustMPH,Humidity,HourlyPrecipIn,Conditions,Clouds,dailyrainin,SoftwareType,DateUTC
2013-02-12 00:00:00,66.7,63.4,30.07,WSW,238,0.0,0.0,89,0.00,CLR,,0.00,WeatherDisplay:10.37,2013-02-12 05:00:00,
2013-02-12 00:05:00,66.5,63.2,30.06,WSW,238,0.0,0.0,89,0.00,CLR,,0.00,WeatherDisplay:10.37,2013-02-12 05:05:00,
2013-02-12 00:10:00,66.4,63.1,30.06,WSW,238,0.0,0.0,89,0.00,CLR,,0.00,WeatherDisplay:10.37,2013-02-12 05:10:00,
2013-02-12 00:15:00,66.2,62.9,30.06,WSW,238,0.0,0.0,89,0.00,CLR,,0.00,WeatherDisplay:10.37,2013-02-12 05:15:00,
2013-02-12 00:20:00,66.0,63.0,30.06,WSW,238,0.0,0.0,90,0.00,CLR,,0.00,WeatherDisplay:10.37,2013-02-12 05:20:00,
2013-02-12 00:25:00,65.8,62.8,30.06,WSW,238,0.0,0.0,90,0.00,CLR,,0.00,WeatherDisplay:10.37,2013-02-12 05:25:00,
2013-02-12 00:30:00,65.6,62.9,30.06,WSW,238,0.0,0.0,91,0.00,CLR,,0.00,WeatherDisplay:10.37,2013-02-12 05:30:00,
2013-02-12 00:35:00,65.4,62.7,30.06,WSW,238,0.0,0.0,91,0.00,CLR,,0.00,WeatherDisplay:10.37,2013-02-12 05:35:00,
2013-02-12 00:40:00,65.3,62.6,30.06,WSW,238,0.0,0.0,91,0.00,CLR,,0.00,WeatherDisplay:10.37,2013-02-12 05:40:00,
2013-02-12 00:45:00,65.2,62.5,30.06,WSW,238,0.0,0.0,91,0.00,CLR,,0.00,WeatherDisplay:10.37,2013-02-12 05:45:00,
2013-02-12 00:50:00,65.0,62.3,30.06,WSW,238,0.0,0.0,91,0.00,CLR,,0.00,WeatherDisplay:10.37,2013-02-12 05:50:00,
2013-02-12 00:55:00,64.9,62.2,30.06,WSW,238,0.0,0.0,91,0.00,CLR,,0.00,WeatherDisplay:10.37,2013-02-12 05:55:00,
2013-02-12 01:00:00,64.8,62.4,30.06,WSW,238,0.0,0.0,92,0.00,CLR,,0.00,WeatherDisplay:10.37,2013-02-12 06:00:00,
2013-02-12 01:05:00,64.7,62.3,30.06,WSW,238,0.0,0.0,92,0.00,CLR,,0.00,WeatherDisplay:10.37,2013-02-12 06:05:00,
2013-02-12 01:10:00,64.7,62.3,30.06,WSW,238,0.0,0.0,92,0.00,CLR,,0.00,WeatherDisplay:10.37,2013-02-12 06:10:00,
2013-02-12 01:15:00,64.7,62.3,30.06,WSW,238,0.0,0.0,92,0.00,CLR,,0.00,WeatherDisplay:10.37,2013-02-12 06:15:00,
2013-02-12 01:20:00,64.6,62.2,30.06,WSW,238,0.0,0.0,92,0.00,CLR,,0.00,WeatherDisplay:10.37,2013-02-12 06:20:00,
2013-02-12 01:25:00,64.6,62.2,30.06,WSW,238,0.0,0.0,92,0.00,CLR,,0.00,WeatherDisplay:10.37,2013-02-12 06:25:00,
2013-02-12 01:30:00,64.5,62.1,30.05,WSW,238,0.0,0.0,92,0.00,CLR,,0.00,WeatherDisplay:10.37,2013-02-12 06:30:00,
2013-02-12 01:35:00,64.4,62.3,30.05,WSW,238,0.0,0.0,93,0.00,CLR,,0.00,WeatherDisplay:10.37,2013-02-12 06:35:00,
2013-02-12 01:40:00,64.3,62.2,30.05,WSW,238,0.0,0.0,93,0.00,CLR,,0.00,WeatherDisplay:10.37,2013-02-12 06:40:00,
2013-02-12 01:45:00,64.2,62.1,30.05,WSW,238,0.0,0.0,93,0.00,CLR,,0.00,WeatherDisplay:10.37,2013-02-12 06:45:00,
2013-02-12 01:50:00,64.1,62.0,30.05,WSW,238,0.0,0.0,93,0.00,CLR,,0.00,WeatherDisplay:10.37,2013-02-12 06:50:00,
2013-02-12 01:55:00,64.0,61.9,30.05,WSW,238,0.0,0.0,93,0.00,CLR,,0.00,WeatherDisplay:10.37,2013-02-12 06:55:00,
2013-02-12 02:00:00,63.9,61.8,30.05,WSW,238,0.0,0.0,93,0.00,CLR,,0.00,WeatherDisplay:10.37,2013-02-12 07:00:00,
2013-02-12 02:05:00,63.8,61.7,30.05,WSW,238,0.0,0.0,93,0.00,CLR,,0.00,WeatherDisplay:10.37,2013-02-12 07:05:00,
2013-02-12 02:10:00,63.6,61.5,30.05,WSW,238,0.0,0.0,93,0.00,CLR,,0.00,WeatherDisplay:10.37,2013-02-12 07:10:00,
2013-02-12 02:15:00,63.5,61.4,30.05,WSW,238,0.0,0.0,93,0.00,CLR,,0.00,WeatherDisplay:10.37,2013-02-12 07:15:00,
2013-02-12 02:20:00,63.4,61.6,30.05,WSW,238,0.0,0.0,94,0.00,CLR,,0.00,WeatherDisplay:10.37,2013-02-12 07:20:00,
2013-02-12 02:25:00,63.2,61.4,30.05,WSW,238,0.0,0.0,94,0.00,CLR,,0.00,WeatherDisplay:10.37,2013-02-12 07:25:00,
2013-02-12 02:30:00,63.1,61.3,30.04,WSW,238,0.0,0.0,94,0.00,CLR,,0.00,WeatherDisplay:10.37,2013-02-12 07:30:00,
2013-02-12 02:35:00,63.0,61.2,30.04,WSW,238,0.0,0.0,94,0.00,CLR,,0.00,WeatherDisplay:10.37,2013-02-12 07:35:00,
2013-02-12 02:40:00,62.9,61.1,30.04,WSW,238,0.0,0.0,94,0.00,CLR,,0.00,WeatherDisplay:10.37,2013-02-12 07:40:00,
2013-02-12 02:45:00,62.8,61.0,30.04,WSW,238,0.0,0.0,94,0.00,CLR,,0.00,WeatherDisplay:10.37,2013-02-12 07:45:00,
2013-02-12 02:50:00,62.7,60.9,30.04,WSW,238,0.0,0.0,94,0.00,CLR,,0.00,WeatherDisplay:10.37,2013-02-12 07:50:00,
2013-02-12 02:55:00,62.7,61.2,30.04,WSW,238,0.0,0.0,95,0.00,CLR,,0.00,WeatherDisplay:10.37,2013-02-12 07:55:00,
2013-02-12 03:00:00,62.8,61.3,30.04,WSW,238,1.0,0.0,95,0.00,CLR,,0.00,WeatherDisplay:10.37,2013-02-12 08:00:00,
2013-02-12 03:05:00,62.9,61.4,30.04,WSW,238,0.0,0.0,95,0.00,CLR,,0.00,WeatherDisplay:10.37,2013-02-12 08:05:00,
2013-02-12 03:10:00,63.0,61.5,30.04,WSW,238,0.0,0.0,95,0.00,CLR,,0.00,WeatherDisplay:10.37,2013-02-12 08:10:00,
2013-02-12 03:15:00,63.1,61.6,30.04,WSW,238,0.0,0.0,95,0.00,CLR,,0.00,WeatherDisplay:10.37,2013-02-12 08:15:00,
2013-02-12 03:20:00,63.3,61.8,30.03,WSW,238,0.0,0.0,95,0.00,CLR,,0.00,WeatherDisplay:10.37,2013-02-12 08:20:00,
2013-02-12 03:25:00,63.4,61.9,30.04,WSW,238,0.0,0.0,95,0.00,CLR,,0.00,WeatherDisplay:10.37,2013-02-12 08:25:00,
2013-02-12 03:30:00,63.5,62.0,30.04,WSW,238,0.0,0.0,95,0.00,CLR,,0.00,WeatherDisplay:10.37,2013-02-12 08:30:00,
2013-02-12 03:35:00,63.6,62.1,30.04,WSW,238,0.0,0.0,95,0.00,CLR,,0.00,WeatherDisplay:10.37,2013-02-12 08:35:00,
2013-02-12 03:40:00,63.8,62.3,30.03,WSW,238,0.0,0.0,95,0.00,CLR,,0.00,WeatherDisplay:10.37,2013-02-12 08:40:00,
2013-02-12 03:45:00,63.9,62.4,30.03,WSW,238,1.1,0.0,95,0.00,CLR,,0.00,WeatherDisplay:10.37,2013-02-12 08:45:00,
2013-02-12 03:50:00,64.0,62.5,30.03,WSW,238,0.0,0.0,95,0.00,CLR,,0.00,WeatherDisplay:10.37,2013-02-12 08:50:00,
2013-02-12 03:55:00,64.1,62.6,30.03,WSW,238,0.0,0.0,95,0.00,CLR,,0.00,WeatherDisplay:10.37,2013-02-12 08:55:00,
2013-02-12 04:00:00,64.1,62.6,30.03,WSW,238,0.0,0.0,95,0.00,CLR,,0.00,WeatherDisplay:10.37,2013-02-12 09:00:00,
2013-02-12 04:05:00,64.2,62.7,30.03,WSW,238,0.0,0.0,95,0.00,CLR,,0.00,WeatherDisplay:10.37,2013-02-12 09:05:00,
2013-02-12 04:10:00,64.2,62.7,30.03,WSW,238,0.0,0.0,95,0.00,CLR,,0.00,WeatherDisplay:10.37,2013-02-12 09:10:00,
2013-02-12 04:15:00,64.3,62.8,30.03,WSW,238,0.0,0.0,95,0.00,CLR,,0.00,WeatherDisplay:10.37,2013-02-12 09:15:00,
2013-02-12 04:20:00,64.4,62.9,30.03,WSW,238,0.0,0.0,95,0.00,CLR,,0.00,WeatherDisplay:10.37,2013-02-12 09:20:00,
2013-02-12 04:25:00,64.5,63.0,30.02,WSW,238,0.0,0.0,95,0.00,CLR,,0.00,WeatherDisplay:10.37,2013-02-12 09:25:00,
2013-02-12 04:30:00,64.5,63.0,30.02,WSW,238,0.0,0.0,95,0.00,CLR,,0.00,WeatherDisplay:10.37,2013-02-12 09:30:00,
2013-02-12 04:35:00,64.6,63.1,30.02,SW,216,2.3,2.3,95,0.00,CLR,,0.00,WeatherDisplay:10.37,2013-02-12 09:35:00,
2013-02-12 04:40:00,64.7,63.2,30.02,SW,216,0.0,0.0,95,0.00,CLR,,0.00,WeatherDisplay:10.37,2013-02-12 09:40:00,
2013-02-12 04:45:00,64.8,63.6,30.02,SW,216,0.0,0.0,96,0.00,CLR,,0.00,WeatherDisplay:10.37,2013-02-12 09:45:00,
2013-02-12 04:50:00,64.9,63.7,30.02,SSW,207,1.1,1.1,96,0.00,CLR,,0.00,WeatherDisplay:10.37,2013-02-12 09:50:00,
2013-02-12 04:55:00,64.9,63.7,30.02,SSW,207,0.0,0.0,96,0.00,CLR,,0.00,WeatherDisplay:10.37,2013-02-12 09:55:00,
2013-02-12 05:00:00,65.0,63.8,30.03,SSW,207,1.0,1.0,96,0.00,CLR,,0.00,WeatherDisplay:10.37,2013-02-12 10:00:00,
2013-02-12 05:05:00,65.1,63.6,30.03,SSW,207,0.0,0.0,95,0.00,CLR,,0.00,WeatherDisplay:10.37,2013-02-12 10:05:00,
2013-02-12 05:10:00,65.1,63.6,30.03,SSW,207,1.1,0.0,95,0.00,CLR,,0.00,WeatherDisplay:10.37,2013-02-12 10:10:00,
2013-02-12 05:15:00,65.2,63.7,30.03,SSW,207,0.0,0.0,95,0.00,CLR,,0.00,WeatherDisplay:10.37,2013-02-12 10:15:00,
2013-02-12 05:20:00,65.3,63.8,30.03,SSW,207,1.1,0.0,95,0.00,CLR,,0.00,WeatherDisplay:10.37,2013-02-12 10:20:00,
2013-02-12 05:25:00,65.4,64.2,30.03,SSW,206,3.5,3.5,96,0.00,CLR,,0.00,WeatherDisplay:10.37,2013-02-12 10:25:00,
2013-02-12 05:30:00,65.4,64.2,30.03,SSW,207,0.0,0.0,96,0.00,CLR,,0.00,WeatherDisplay:10.37,2013-02-12 10:30:00,
2013-02-12 05:35:00,65.4,64.2,30.03,SSW,207,0.0,0.0,96,0.00,CLR,,0.00,WeatherDisplay:10.37,2013-02-12 10:35:00,
2013-02-12 05:40:00,65.4,64.2,30.03,SSW,207,0.0,0.0,96,0.00,CLR,,0.00,WeatherDisplay:10.37,2013-02-12 10:40:00,
2013-02-12 05:45:00,65.4,64.2,30.02,SSW,207,0.0,0.0,96,0.00,CLR,,0.00,WeatherDisplay:10.37,2013-02-12 10:45:00,
2013-02-12 05:50:00,65.4,64.2,30.02,SSW,206,1.1,0.0,96,0.00,CLR,,0.00,WeatherDisplay:10.37,2013-02-12 10:50:00,
2013-02-12 05:55:00,65.3,64.1,30.03,SSW,206,0.0,0.0,96,0.00,CLR,,0.00,WeatherDisplay:10.37,2013-02-12 10:55:00,
2013-02-12 06:00:00,65.4,64.2,30.02,SSW,207,0.0,0.0,96,0.00,CLR,,0.00,WeatherDisplay:10.37,2013-02-12 11:00:00,
2013-02-12 06:05:00,65.4,64.2,30.02,SSW,206,0.0,0.0,96,0.00,CLR,,0.00,WeatherDisplay:10.37,2013-02-12 11:05:00,
2013-02-12 06:10:00,65.4,64.2,30.03,SSW,206,0.0,0.0,96,0.00,CLR,,0.00,WeatherDisplay:10.37,2013-02-12 11:10:00,
2013-02-12 06:15:00,65.3,64.1,30.03,SSW,207,0.0,0.0,96,0.00,CLR,,0.00,WeatherDisplay:10.37,2013-02-12 11:15:00,
2013-02-12 06:20:00,65.3,64.1,30.03,SSW,206,0.0,0.0,96,0.00,CLR,,0.00,WeatherDisplay:10.37,2013-02-12 11:20:00,
2013-02-12 06:25:00,65.3,64.1,30.03,SSW,206,0.0,0.0,96,0.00,CLR,,0.00,WeatherDisplay:10.37,2013-02-12 11:25:00,
2013-02-12 06:30:00,65.3,64.1,30.03,SSW,206,0.0,0.0,96,0.00,CLR,,0.00,WeatherDisplay:10.37,2013-02-12 11:30:00,
2013-02-12 06:35:00,65.3,64.1,30.03,SSW,206,0.0,0.0,96,0.00,CLR,,0.00,WeatherDisplay:10.37,2013-02-12 11:35:00,
2013-02-12 06:40:00,65.3,64.4,30.03,SSW,206,0.0,0.0,97,0.00,CLR,,0.00,WeatherDisplay:10.37,2013-02-12 11:40:00,
2013-02-12 06:45:00,65.3,64.4,30.03,SSW,207,0.0,0.0,97,0.00,CLR,,0.00,WeatherDisplay:10.37,2013-02-12 11:45:00,
2013-02-12 06:50:00,65.3,64.4,30.03,SSW,206,0.0,0.0,97,0.00,CLR,,0.00,WeatherDisplay:10.37,2013-02-12 11:50:00,
2013-02-12 06:55:00,65.2,64.3,30.03,SSW,206,1.1,0.0,97,0.00,CLR,,0.00,WeatherDisplay:10.37,2013-02-12 11:55:00,
2013-02-12 07:00:00,65.2,64.3,30.03,SSW,207,0.0,0.0,97,0.00,CLR,,0.00,WeatherDisplay:10.37,2013-02-12 12:00:00,
2013-02-12 07:05:00,65.3,64.4,30.04,SSW,207,0.0,0.0,97,0.00,CLR,,0.00,WeatherDisplay:10.37,2013-02-12 12:05:00,
2013-02-12 07:10:00,65.3,64.4,30.04,SSW,206,0.0,0.0,97,0.00,CLR,,0.00,WeatherDisplay:10.37,2013-02-12 12:10:00,
2013-02-12 07:15:00,65.3,64.4,30.04,SSW,206,0.0,0.0,97,0.00,CLR,,0.00,WeatherDisplay:10.37,2013-02-12 12:15:00,
2013-02-12 07:20:00,65.3,64.4,30.04,SSW,207,0.0,0.0,97,0.00,CLR,,0.00,WeatherDisplay:10.37,2013-02-12 12:20:00,
2013-02-12 07:25:00,65.4,64.5,30.04,SSW,207,1.1,1.1,97,0.00,CLR,,0.00,WeatherDisplay:10.37,2013-02-12 12:25:00,
2013-02-12 07:30:00,65.4,64.5,30.05,SSW,207,1.1,0.0,97,0.00,CLR,,0.00,WeatherDisplay:10.37,2013-02-12 12:30:00,
2013-02-12 07:35:00,65.4,64.5,30.05,SSW,206,1.1,0.0,97,0.00,CLR,,0.00,WeatherDisplay:10.37,2013-02-12 12:35:00,
2013-02-12 07:40:00,65.4,64.5,30.05,SW,214,1.1,0.0,97,0.00,CLR,,0.00,WeatherDisplay:10.37,2013-02-12 12:40:00,
2013-02-12 07:45:00,65.4,64.5,30.05,SW,214,3.5,3.5,97,0.00,CLR,,0.00,WeatherDisplay:10.37,2013-02-12 12:45:00,
2013-02-12 07:50:00,65.5,64.6,30.05,SW,214,1.1,0.0,97,0.00,CLR,,0.00,WeatherDisplay:10.37,2013-02-12 12:50:00,
2013-02-12 07:55:00,65.6,64.7,30.05,SW,214,1.1,0.0,97,0.00,CLR,,0.00,WeatherDisplay:10.37,2013-02-12 12:55:00,
2013-02-12 08:00:00,65.6,64.7,30.05,SW,217,3.5,3.5,97,0.00,CLR,,0.00,WeatherDisplay:10.37,2013-02-12 13:00:00,
2013-02-12 08:05:00,65.7,64.8,30.05,SW,223,4.0,4.0,97,0.00,CLR,,0.00,WeatherDisplay:10.37,2013-02-12 13:05:00,
2013-02-12 08:10:00,65.7,64.8,30.05,SW,226,2.3,2.3,97,0.00,CLR,,0.00,WeatherDisplay:10.37,2013-02-12 13:10:00,
2013-02-12 08:15:00,65.8,64.9,30.05,SW,221,0.0,0.1,97,0.00,CLR,,0.00,WeatherDisplay:10.37,2013-02-12 13:15:00,
2013-02-12 08:20:00,65.9,65.0,30.05,WSW,245,1.1,1.1,97,0.00,CLR,,0.00,WeatherDisplay:10.37,2013-02-12 13:20:00,
2013-02-12 08:25:00,65.9,65.0,30.05,WSW,243,0.0,0.2,97,0.00,CLR,,0.00,WeatherDisplay:10.37,2013-02-12 13:25:00,
2013-02-12 08:30:00,66.0,65.1,30.05,WSW,243,1.1,1.1,97,0.00,CLR,,0.00,WeatherDisplay:10.37,2013-02-12 13:30:00,
2013-02-12 08:35:00,66.0,65.1,30.05,SW,226,4.6,4.6,97,0.00,CLR,,0.00,WeatherDisplay:10.37,2013-02-12 13:35:00,
2013-02-12 08:40:00,66.1,65.2,30.05,SW,235,0.0,0.0,97,0.00,CLR,,0.00,WeatherDisplay:10.37,2013-02-12 13:40:00,
2013-02-12 08:45:00,66.2,65.3,30.05,SW,236,3.5,3.5,97,0.00,CLR,,0.00,WeatherDisplay:10.37,2013-02-12 13:45:00,
2013-02-12 08:50:00,66.3,65.4,30.06,WSW,244,1.1,1.1,97,0.00,CLR,,0.00,WeatherDisplay:10.37,2013-02-12 13:50:00,
2013-02-12 08:55:00,66.4,65.5,30.06,SW,219,4.6,4.6,97,0.00,CLR,,0.00,WeatherDisplay:10.37,2013-02-12 13:55:00,
2013-02-12 09:00:00,66.5,65.6,30.05,SW,221,0.0,0.0,97,0.00,CLR,,0.00,WeatherDisplay:10.37,2013-02-12 14:00:00,
2013-02-12 09:05:00,66.6,65.7,30.05,WSW,242,3.5,3.5,97,0.00,CLR,,0.00,WeatherDisplay:10.37,2013-02-12 14:05:00,
2013-02-12 09:10:00,66.6,65.7,30.05,SW,223,2.3,2.3,97,0.00,CLR,,0.00,WeatherDisplay:10.37,2013-02-12 14:10:00,
2013-02-12 09:15:00,66.7,65.8,30.05,SSW,208,3.5,3.5,97,0.00,CLR,,0.00,WeatherDisplay:10.37,2013-02-12 14:15:00,
2013-02-12 09:20:00,66.8,65.9,30.05,WSW,239,2.3,2.3,97,0.00,CLR,,0.00,WeatherDisplay:10.37,2013-02-12 14:20:00,
2013-02-12 09:25:00,66.9,66.0,30.06,WSW,248,2.3,2.3,97,0.00,CLR,,0.00,WeatherDisplay:10.37,2013-02-12 14:25:00,
2013-02-12 09:30:00,67.1,66.2,30.06,WSW,239,3.5,3.5,97,0.00,CLR,,0.00,WeatherDisplay:10.37,2013-02-12 14:30:00,
2013-02-12 09:35:00,67.2,66.3,30.05,SSW,207,3.5,3.5,97,0.00,CLR,,0.00,WeatherDisplay:10.37,2013-02-12 14:35:00,
2013-02-12 09:40:00,67.4,66.2,30.05,WSW,250,3.5,3.5,96,0.00,CLR,,0.00,WeatherDisplay:10.37,2013-02-12 14:40:00,
2013-02-12 09:45:00,67.6,66.4,30.05,SW,225,0.0,0.0,96,0.00,CLR,,0.00,WeatherDisplay:10.37,2013-02-12 14:45:00,
2013-02-12 09:50:00,67.8,66.6,30.05,West,263,1.1,0.0,96,0.00,CLR,,0.00,WeatherDisplay:10.37,2013-02-12 14:50:00,
2013-02-12 09:55:00,68.0,66.5,30.05,West,265,0.0,0.0,95,0.00,CLR,,0.00,WeatherDisplay:10.37,2013-02-12 14:55:00,
2013-02-12 10:00:00,68.2,66.7,30.05,SW,231,6.9,6.9,95,0.00,CLR,,0.00,WeatherDisplay:10.37,2013-02-12 15:00:00,
2013-02-12 10:05:00,68.3,66.8,30.05,SSW,198,3.5,3.5,95,0.00,CLR,,0.00,WeatherDisplay:10.37,2013-02-12 15:05:00,
2013-02-12 10:10:00,68.5,66.7,30.06,SW,232,3.5,3.5,94,0.00,CLR,,0.00,WeatherDisplay:10.37,2013-02-12 15:10:00,
2013-02-12 10:15:00,68.6,66.8,30.06,SW,227,5.0,5.0,94,0.00,CLR,,0.00,WeatherDisplay:10.37,2013-02-12 15:15:00,
2013-02-12 10:20:00,68.8,66.7,30.06,SW,217,2.3,2.3,93,0.00,CLR,,0.00,WeatherDisplay:10.37,2013-02-12 15:20:00,
2013-02-12 10:25:00,69.0,66.9,30.05,SW,215,3.5,3.5,93,0.00,CLR,,0.00,WeatherDisplay:10.37,2013-02-12 15:25:00,
2013-02-12 10:30:00,69.3,67.2,30.05,WSW,237,3.5,3.5,93,0.00,CLR,,0.00,WeatherDisplay:10.37,2013-02-12 15:30:00,
2013-02-12 10:35:00,69.5,67.1,30.06,SSW,200,0.0,0.1,92,0.00,CLR,,0.00,WeatherDisplay:10.37,2013-02-12 15:35:00,
2013-02-12 10:40:00,69.7,67.3,30.05,SSW,201,4.6,4.6,92,0.00,CLR,,0.00,WeatherDisplay:10.37,2013-02-12 15:40:00,
2013-02-12 10:45:00,70.1,67.3,30.05,WSW,238,8.1,8.1,91,0.00,CLR,,0.00,WeatherDisplay:10.37,2013-02-12 15:45:00,
2013-02-12 10:50:00,70.3,67.5,30.05,SSW,202,2.0,2.0,91,0.00,CLR,,0.00,WeatherDisplay:10.37,2013-02-12 15:50:00,
2013-02-12 10:55:00,70.6,67.5,30.04,SSW,200,3.5,3.5,90,0.00,CLR,,0.00,WeatherDisplay:10.37,2013-02-12 15:55:00,
2013-02-12 11:00:00,71.2,68.1,30.04,South,182,3.5,3.5,90,0.00,CLR,,0.00,WeatherDisplay:10.37,2013-02-12 16:00:00,
2013-02-12 11:05:00,71.8,68.1,30.04,SW,227,7.0,7.0,88,0.00,CLR,,0.00,WeatherDisplay:10.37,2013-02-12 16:05:00,
2013-02-12 11:10:00,72.0,67.9,30.04,WSW,238,3.5,3.5,87,0.00,CLR,,0.00,WeatherDisplay:10.37,2013-02-12 16:10:00,
2013-02-12 11:15:00,72.5,68.4,30.03,WSW,254,3.5,3.5,87,0.00,CLR,,0.00,WeatherDisplay:10.37,2013-02-12 16:15:00,
2013-02-12 11:20:00,72.9,68.1,30.03,South,186,11.5,11.5,85,0.00,CLR,,0.00,WeatherDisplay:10.37,2013-02-12 16:20:00,
2013-02-12 11:25:00,73.3,68.5,30.03,South,190,5.8,5.8,85,0.00,CLR,,0.00,WeatherDisplay:10.37,2013-02-12 16:25:00,
2013-02-12 11:30:00,73.9,68.4,30.02,SE,146,10.4,10.4,83,0.00,CLR,,0.00,WeatherDisplay:10.37,2013-02-12 16:30:00,
2013-02-12 11:35:00,74.3,68.8,30.02,SSW,204,4.0,4.0,83,0.00,CLR,,0.00,WeatherDisplay:10.37,2013-02-12 16:35:00,
2013-02-12 11:40:00,75.0,68.8,30.02,South,170,4.6,4.6,81,0.00,CLR,,0.00,WeatherDisplay:10.37,2013-02-12 16:40:00,
2013-02-12 11:45:00,75.4,68.8,30.02,SW,223,5.8,5.8,80,0.00,CLR,,0.00,WeatherDisplay:10.37,2013-02-12 16:45:00,
2013-02-12 11:50:00,75.4,68.4,30.01,SW,225,6.9,6.9,79,0.00,CLR,,0.00,WeatherDisplay:10.37,2013-02-12 16:50:00,
2013-02-12 11:55:00,75.5,68.9,30.01,SSE,167,5.8,5.8,80,0.00,CLR,,0.00,WeatherDisplay:10.37,2013-02-12 16:55:00,
2013-02-12 12:00:00,75.7,68.7,30.01,WSW,250,10.4,10.4,79,0.00,CLR,,0.00,WeatherDisplay:10.37,2013-02-12 17:00:00,
2013-02-12 12:05:00,75.7,68.4,30.01,South,171,6.9,6.9,78,0.00,CLR,,0.00,WeatherDisplay:10.37,2013-02-12 17:05:00,
2013-02-12 12:10:00,75.8,68.8,30.01,WSW,257,5.8,5.8,79,0.00,CLR,,0.00,WeatherDisplay:10.37,2013-02-12 17:10:00,
2013-02-12 12:15:00,76.2,68.8,30.01,SW,227,4.6,4.6,78,0.00,CLR,,0.00,WeatherDisplay:10.37,2013-02-12 17:15:00,
2013-02-12 12:20:00,76.6,68.8,30.00,South,188,4.6,4.6,77,0.00,CLR,,0.00,WeatherDisplay:10.37,2013-02-12 17:20:00,
2013-02-12 12:25:00,77.0,68.9,30.00,SSE,153,6.0,6.0,76,0.00,CLR,,0.00,WeatherDisplay:10.37,2013-02-12 17:25:00,
2013-02-12 12:30:00,77.3,69.1,30.00,SSW,196,4.6,4.6,76,0.00,CLR,,0.00,WeatherDisplay:10.37,2013-02-12 17:30:00,
2013-02-12 12:35:00,77.6,69.0,30.00,West,277,5.8,5.8,75,0.00,CLR,,0.00,WeatherDisplay:10.37,2013-02-12 17:35:00,
2013-02-12 12:40:00,78.0,69.0,30.00,SSW,195,7.0,7.0,74,0.00,CLR,,0.00,WeatherDisplay:10.37,2013-02-12 17:40:00,
2013-02-12 12:45:00,78.1,68.7,30.00,SE,145,8.1,8.1,73,0.00,CLR,,0.00,WeatherDisplay:10.37,2013-02-12 17:45:00,
2013-02-12 12:50:00,77.8,68.8,30.00,SW,234,6.9,6.9,74,0.00,CLR,,0.00,WeatherDisplay:10.37,2013-02-12 17:50:00,
2013-02-12 12:55:00,77.9,68.9,29.99,South,169,4.6,4.6,74,0.00,CLR,,0.00,WeatherDisplay:10.37,2013-02-12 17:55:00,
2013-02-12 13:00:00,78.4,69.0,29.99,WSW,253,3.5,3.5,73,0.00,CLR,,0.00,WeatherDisplay:10.37,2013-02-12 18:00:00,
2013-02-12 13:05:00,78.5,69.1,29.99,South,173,10.4,10.4,73,0.00,CLR,,0.00,WeatherDisplay:10.37,2013-02-12 18:05:00,
2013-02-12 13:10:00,78.3,68.5,29.99,SW,236,5.8,5.8,72,0.00,CLR,,0.00,WeatherDisplay:10.37,2013-02-12 18:10:00,
2013-02-12 13:15:00,78.4,69.0,29.98,SW,229,3.5,3.5,73,0.00,CLR,,0.00,WeatherDisplay:10.37,2013-02-12 18:15:00,
2013-02-12 13:21:00,78.9,68.7,29.98,SW,219,3.5,3.5,71,0.00,CLR,,0.00,WeatherDisplay:10.37,2013-02-12 18:21:00,
2013-02-12 13:26:00,79.4,68.8,29.97,South,190,3.5,3.5,70,0.00,CLR,,0.00,WeatherDisplay:10.37,2013-02-12 18:26:00,
2013-02-12 13:31:00,79.8,68.7,29.97,South,170,4.6,4.6,69,0.00,CLR,,0.00,WeatherDisplay:10.37,2013-02-12 18:31:00,
2013-02-12 13:36:00,80.1,68.6,29.96,South,188,3.5,3.5,68,0.00,CLR,,0.00,WeatherDisplay:10.37,2013-02-12 18:36:00,
2013-02-12 13:41:00,80.3,68.8,29.96,West,281,4.6,4.6,68,0.00,CLR,,0.00,WeatherDisplay:10.37,2013-02-12 18:41:00,
2013-02-12 13:46:00,80.2,68.2,29.96,South,176,10.4,10.4,67,0.00,CLR,,0.00,WeatherDisplay:10.37,2013-02-12 18:46:00,
2013-02-12 13:51:00,79.6,68.1,29.96,SSW,196,5.8,5.8,68,0.00,CLR,,0.00,WeatherDisplay:10.37,2013-02-12 18:51:00,
2013-02-12 13:56:00,79.3,68.2,29.95,SSW,208,8.1,8.1,69,0.00,CLR,,0.00,WeatherDisplay:10.37,2013-02-12 18:56:00,
2013-02-12 14:01:00,79.5,68.4,29.95,West,266,2.0,2.0,69,0.00,CLR,,0.00,WeatherDisplay:10.37,2013-02-12 19:01:00,
2013-02-12 14:06:00,79.8,68.3,29.95,SSW,212,4.6,4.6,68,0.00,CLR,,0.00,WeatherDisplay:10.37,2013-02-12 19:06:00,
2013-02-12 14:11:00,80.2,68.7,29.95,SSE,168,2.3,2.3,68,0.00,CLR,,0.00,WeatherDisplay:10.37,2013-02-12 19:11:00,
2013-02-12 14:16:00,80.7,68.7,29.94,SW,226,2.3,2.3,67,0.00,CLR,,0.00,WeatherDisplay:10.37,2013-02-12 19:16:00,
2013-02-12 14:21:00,81.1,68.7,29.94,SW,227,3.5,3.5,66,0.00,CLR,,0.00,WeatherDisplay:10.37,2013-02-12 19:21:00,
2013-02-12 14:26:00,81.2,68.3,29.93,WSW,245,1.1,1.1,65,0.00,CLR,,0.00,WeatherDisplay:10.37,2013-02-12 19:26:00,
2013-02-12 14:31:00,81.4,68.1,29.93,NW,311,6.9,6.9,64,0.00,CLR,,0.00,WeatherDisplay:10.37,2013-02-12 19:31:00,
2013-02-12 14:36:00,81.4,67.6,29.92,South,189,6.9,6.9,63,0.00,CLR,,0.00,WeatherDisplay:10.37,2013-02-12 19:36:00,
2013-02-12 14:41:00,81.2,67.4,29.92,SW,229,5.8,5.8,63,0.00,CLR,,0.00,WeatherDisplay:10.37,2013-02-12 19:41:00,
2013-02-12 14:46:00,81.3,67.0,29.92,SSW,192,4.6,4.6,62,0.00,CLR,,0.00,WeatherDisplay:10.37,2013-02-12 19:46:00,
2013-02-12 14:51:00,81.4,67.1,29.91,WSW,258,3.5,3.5,62,0.00,CLR,,0.00,WeatherDisplay:10.37,2013-02-12 19:51:00,
2013-02-12 14:56:00,81.1,66.8,29.91,South,180,3.5,3.5,62,0.00,CLR,,0.00,WeatherDisplay:10.37,2013-02-12 19:56:00,
2013-02-12 15:01:00,81.0,66.8,29.91,South,181,8.1,8.1,62,0.00,CLR,,0.00,WeatherDisplay:10.37,2013-02-12 20:01:00,
2013-02-12 15:06:00,81.1,66.8,29.91,South,176,3.5,3.5,62,0.00,CLR,,0.00,WeatherDisplay:10.37,2013-02-12 20:06:00,
2013-02-12 15:11:00,81.5,67.2,29.91,SSW,196,5.8,5.8,62,0.00,CLR,,0.00,WeatherDisplay:10.37,2013-02-12 20:11:00,
2013-02-12 15:16:00,81.6,67.3,29.90,SW,228,3.5,3.5,62,0.00,CLR,,0.00,WeatherDisplay:10.37,2013-02-12 20:16:00,
2013-02-12 15:21:00,81.8,67.0,29.90,SW,232,4.6,4.6,61,0.00,CLR,,0.00,WeatherDisplay:10.37,2013-02-12 20:21:00,
2013-02-12 15:26:00,81.9,67.1,29.90,SSW,208,2.3,2.3,61,0.00,CLR,,0.00,WeatherDisplay:10.37,2013-02-12 20:26:00,
2013-02-12 15:31:00,82.2,67.4,29.90,West,263,2.3,2.3,61,0.00,CLR,,0.00,WeatherDisplay:10.37,2013-02-12 20:31:00,
2013-02-12 15:36:00,82.3,67.0,29.90,WSW,244,2.3,0.0,60,0.00,CLR,,0.00,WeatherDisplay:10.37,2013-02-12 20:36:00,
2013-02-12 15:41:00,82.5,66.7,29.90,SSW,194,2.3,2.3,59,0.00,CLR,,0.00,WeatherDisplay:10.37,2013-02-12 20:41:00,
2013-02-12 15:46:00,82.5,66.2,29.90,SSW,192,3.5,3.5,58,0.00,CLR,,0.00,WeatherDisplay:10.37,2013-02-12 20:46:00,
2013-02-12 15:51:00,82.5,65.7,29.90,South,190,11.5,11.5,57,0.00,CLR,,0.00,WeatherDisplay:10.37,2013-02-12 20:51:00,
2013-02-12 15:56:00,82.5,65.2,29.90,SSW,205,4.6,4.6,56,0.00,CLR,,0.00,WeatherDisplay:10.37,2013-02-12 20:56:00,
2013-02-12 16:01:00,82.4,65.1,29.90,SSW,213,6.9,6.9,56,0.00,CLR,,0.00,WeatherDisplay:10.37,2013-02-12 21:01:00,
2013-02-12 16:06:00,82.3,66.0,29.90,SSW,196,4.6,0.0,58,0.00,CLR,,0.00,WeatherDisplay:10.37,2013-02-12 21:06:00,
2013-02-12 16:11:00,82.4,66.6,29.90,WSW,249,2.3,2.3,59,0.00,CLR,,0.00,WeatherDisplay:10.37,2013-02-12 21:11:00,
2013-02-12 16:16:00,82.5,65.7,29.89,West,273,3.5,3.5,57,0.00,CLR,,0.00,WeatherDisplay:10.37,2013-02-12 21:16:00,
2013-02-12 16:21:00,82.4,65.6,29.89,SW,227,10.4,10.4,57,0.00,CLR,,0.00,WeatherDisplay:10.37,2013-02-12 21:21:00,
2013-02-12 16:26:00,82.3,66.5,29.89,SSW,196,2.0,2.0,59,0.00,CLR,,0.00,WeatherDisplay:10.37,2013-02-12 21:26:00,
2013-02-12 16:31:00,82.2,66.0,29.89,SW,219,4.6,4.6,58,0.00,CLR,,0.00,WeatherDisplay:10.37,2013-02-12 21:31:00,
2013-02-12 16:36:00,82.1,65.9,29.89,SSW,193,3.5,3.5,58,0.00,CLR,,0.00,WeatherDisplay:10.37,2013-02-12 21:36:00,
2013-02-12 16:41:00,82.1,65.9,29.89,SW,228,2.3,2.3,58,0.00,CLR,,0.00,WeatherDisplay:10.37,2013-02-12 21:41:00,
2013-02-12 16:46:00,82.1,65.9,29.88,SSW,195,3.5,3.5,58,0.00,CLR,,0.00,WeatherDisplay:10.37,2013-02-12 21:46:00,
2013-02-12 16:51:00,81.9,65.7,29.88,SSW,205,3.5,3.5,58,0.00,CLR,,0.00,WeatherDisplay:10.37,2013-02-12 21:51:00,
2013-02-12 16:56:00,81.6,65.9,29.88,WSW,249,4.6,4.6,59,0.00,CLR,,0.00,WeatherDisplay:10.37,2013-02-12 21:56:00,
2013-02-12 17:01:00,81.2,66.0,29.88,SW,219,6.9,6.9,60,0.00,CLR,,0.00,WeatherDisplay:10.37,2013-02-12 22:01:00,
2013-02-12 17:06:00,80.8,66.1,29.88,SW,235,1.1,0.0,61,0.00,CLR,,0.00,WeatherDisplay:10.37,2013-02-12 22:06:00,
2013-02-12 17:11:00,80.5,65.8,29.88,West,259,4.0,4.0,61,0.00,CLR,,0.00,WeatherDisplay:10.37,2013-02-12 22:11:00,
2013-02-12 17:16:00,80.3,66.1,29.88,WSW,252,3.5,3.5,62,0.00,CLR,,0.00,WeatherDisplay:10.37,2013-02-12 22:16:00,
2013-02-12 17:21:00,80.1,65.9,29.88,SW,228,1.1,0.0,62,0.00,CLR,,0.00,WeatherDisplay:10.37,2013-02-12 22:21:00,
2013-02-12 17:26:00,79.9,65.7,29.88,SSW,208,3.5,3.5,62,0.00,CLR,,0.00,WeatherDisplay:10.37,2013-02-12 22:26:00,
2013-02-12 17:31:00,79.8,65.6,29.88,WSW,246,3.5,3.5,62,0.00,CLR,,0.00,WeatherDisplay:10.37,2013-02-12 22:31:00,
2013-02-12 17:36:00,79.6,65.9,29.88,WSW,242,1.1,0.0,63,0.00,CLR,,0.00,WeatherDisplay:10.37,2013-02-12 22:36:00,
2013-02-12 17:41:00,79.5,65.8,29.88,SSW,207,3.5,3.5,63,0.00,CLR,,0.00,WeatherDisplay:10.37,2013-02-12 22:41:00,
2013-02-12 17:46:00,79.3,66.1,29.88,SSW,207,1.1,1.1,64,0.00,CLR,,0.00,WeatherDisplay:10.37,2013-02-12 22:46:00,
2013-02-12 17:51:00,79.2,65.5,29.88,SSW,209,6.9,6.9,63,0.00,CLR,,0.00,WeatherDisplay:10.37,2013-02-12 22:51:00,
2013-02-12 17:56:00,79.0,65.3,29.88,WSW,238,4.6,4.6,63,0.00,CLR,,0.00,WeatherDisplay:10.37,2013-02-12 22:56:00,
2013-02-12 18:01:00,78.8,65.1,29.88,South,171,1.1,0.0,63,0.00,CLR,,0.00,WeatherDisplay:10.37,2013-02-12 23:01:00,
2013-02-12 18:06:00,78.7,65.5,29.88,WSW,238,1.1,0.0,64,0.00,CLR,,0.00,WeatherDisplay:10.37,2013-02-12 23:06:00,
2013-02-12 18:11:00,78.4,64.8,29.87,SSW,210,4.6,4.6,63,0.00,CLR,,0.00,WeatherDisplay:10.37,2013-02-12 23:11:00,
2013-02-12 18:16:00,78.2,65.0,29.87,SW,234,2.3,2.3,64,0.00,CLR,,0.00,WeatherDisplay:10.37,2013-02-12 23:16:00,
2013-02-12 18:21:00,78.1,64.9,29.87,South,185,5.8,5.8,64,0.00,CLR,,0.00,WeatherDisplay:10.37,2013-02-12 23:21:00,
2013-02-12 18:26:00,77.9,65.2,29.88,WSW,240,1.1,1.1,65,0.00,CLR,,0.00,WeatherDisplay:10.37,2013-02-12 23:26:00,
2013-02-12 18:31:00,77.6,65.3,29.88,NNW,348,3.5,3.5,66,0.00,CLR,,0.00,WeatherDisplay:10.37,2013-02-12 23:31:00,
2013-02-12 18:36:00,77.0,65.6,29.88,NNW,348,1.1,0.0,68,0.00,CLR,,0.00,WeatherDisplay:10.37,2013-02-12 23:36:00,
2013-02-12 18:41:00,76.0,65.5,29.88,NNW,348,0.0,0.0,70,0.00,CLR,,0.00,WeatherDisplay:10.37,2013-02-12 23:41:00,
2013-02-12 18:46:00,75.0,65.4,29.88,NNW,348,1.1,0.0,72,0.00,CLR,,0.00,WeatherDisplay:10.37,2013-02-12 23:46:00,
2013-02-12 18:51:00,74.1,64.9,29.88,NNW,348,1.1,1.1,73,0.00,CLR,,0.00,WeatherDisplay:10.37,2013-02-12 23:51:00,
2013-02-12 18:56:00,73.3,64.9,29.89,NNW,348,0.0,0.0,75,0.00,CLR,,0.00,WeatherDisplay:10.37,2013-02-12 23:56:00,
2013-02-12 19:01:00,72.8,64.8,29.88,NNW,348,0.0,0.0,76,0.00,CLR,,0.00,WeatherDisplay:10.37,2013-02-13 00:01:00,
2013-02-12 19:06:00,72.2,64.6,29.88,NNW,348,0.0,0.0,77,0.00,CLR,,0.00,WeatherDisplay:10.37,2013-02-13 00:06:00,
2013-02-12 19:11:00,71.7,64.5,29.88,NNW,348,0.0,0.0,78,0.00,CLR,,0.00,WeatherDisplay:10.37,2013-02-13 00:11:00,
2013-02-12 19:16:00,71.3,64.4,29.88,NNW,348,0.0,0.0,79,0.00,CLR,,0.00,WeatherDisplay:10.37,2013-02-13 00:16:00,
2013-02-12 19:21:00,70.8,64.3,29.88,NNW,348,0.0,0.0,80,0.00,CLR,,0.00,WeatherDisplay:10.37,2013-02-13 00:21:00,
2013-02-12 19:26:00,70.5,64.0,29.89,NNW,348,0.0,0.0,80,0.00,CLR,,0.00,WeatherDisplay:10.37,2013-02-13 00:26:00,
2013-02-12 19:31:00,70.3,64.2,29.88,NNW,348,0.0,0.0,81,0.00,CLR,,0.00,WeatherDisplay:10.37,2013-02-13 00:31:00,
2013-02-12 19:36:00,69.9,63.8,29.88,NNW,348,0.0,0.0,81,0.00,CLR,,0.00,WeatherDisplay:10.37,2013-02-13 00:36:00,
2013-02-12 19:41:00,69.6,63.9,29.87,NNW,348,0.0,0.0,82,0.00,CLR,,0.00,WeatherDisplay:10.37,2013-02-13 00:41:00,
2013-02-12 19:46:00,69.4,63.7,29.88,NNW,348,0.0,0.0,82,0.00,CLR,,0.00,WeatherDisplay:10.37,2013-02-13 00:46:00,
2013-02-12 19:51:00,69.2,63.8,29.88,NNW,348,0.0,0.0,83,0.00,CLR,,0.00,WeatherDisplay:10.37,2013-02-13 00:51:00,
2013-02-12 19:56:00,69.0,63.6,29.88,NNW,348,0.0,0.0,83,0.00,CLR,,0.00,WeatherDisplay:10.37,2013-02-13 00:56:00,
2013-02-12 20:01:00,68.8,63.8,29.88,NNW,348,0.0,0.0,84,0.00,CLR,,0.00,WeatherDisplay:10.37,2013-02-13 01:01:00,
2013-02-12 20:06:00,68.6,63.6,29.88,NNW,348,0.0,0.0,84,0.00,CLR,,0.00,WeatherDisplay:10.37,2013-02-13 01:06:00,
2013-02-12 20:11:00,68.5,63.8,29.89,NNW,348,0.0,0.0,85,0.00,CLR,,0.00,WeatherDisplay:10.37,2013-02-13 01:11:00,
2013-02-12 20:16:00,68.4,63.7,29.89,NNW,348,0.0,0.0,85,0.00,CLR,,0.00,WeatherDisplay:10.37,2013-02-13 01:16:00,
2013-02-12 20:21:00,68.3,63.6,29.88,NNW,348,0.0,0.0,85,0.00,CLR,,0.00,WeatherDisplay:10.37,2013-02-13 01:21:00,
2013-02-12 20:26:00,68.2,63.5,29.89,NNW,348,0.0,0.0,85,0.00,CLR,,0.00,WeatherDisplay:10.37,2013-02-13 01:26:00,
2013-02-12 20:31:00,68.1,63.8,29.89,West,265,2.3,2.3,86,0.00,CLR,,0.00,WeatherDisplay:10.37,2013-02-13 01:31:00,
2013-02-12 20:36:00,68.1,64.1,29.89,SSW,194,2.3,2.3,87,0.00,CLR,,0.00,WeatherDisplay:10.37,2013-02-13 01:36:00,
2013-02-12 20:41:00,68.3,64.3,29.89,SW,227,3.5,3.5,87,0.00,CLR,,0.00,WeatherDisplay:10.37,2013-02-13 01:41:00,
2013-02-12 20:46:00,68.8,64.8,29.89,SW,216,1.1,1.1,87,0.00,CLR,,0.00,WeatherDisplay:10.37,2013-02-13 01:46:00,
2013-02-12 20:51:00,69.2,65.2,29.89,SW,221,3.5,3.5,87,0.00,CLR,,0.00,WeatherDisplay:10.37,2013-02-13 01:51:00,
2013-02-12 20:56:00,69.6,65.2,29.89,SW,221,2.0,2.0,86,0.00,CLR,,0.00,WeatherDisplay:10.37,2013-02-13 01:56:00,
2013-02-12 21:01:00,69.8,65.4,29.89,WSW,244,0.0,0.0,86,0.00,CLR,,0.00,WeatherDisplay:10.37,2013-02-13 02:01:00,
2013-02-12 21:06:00,70.0,65.6,29.88,South,188,2.3,2.3,86,0.00,CLR,,0.00,WeatherDisplay:10.37,2013-02-13 02:06:00,
2013-02-12 21:11:00,70.3,65.6,29.88,SSW,201,0.0,0.0,85,0.00,CLR,,0.00,WeatherDisplay:10.37,2013-02-13 02:11:00,
2013-02-12 21:16:00,70.5,65.8,29.89,SW,234,1.1,1.1,85,0.00,CLR,,0.00,WeatherDisplay:10.37,2013-02-13 02:16:00,
2013-02-12 21:21:00,70.7,66.0,29.89,WSW,238,3.5,3.5,85,0.00,CLR,,0.00,WeatherDisplay:10.37,2013-02-13 02:21:00,
2013-02-12 21:26:00,70.8,66.1,29.89,WSW,246,5.0,5.0,85,0.00,CLR,,0.00,WeatherDisplay:10.37,2013-02-13 02:26:00,
2013-02-12 21:31:00,71.0,66.3,29.89,SW,218,1.1,0.0,85,0.00,CLR,,0.00,WeatherDisplay:10.37,2013-02-13 02:31:00,
2013-02-12 21:36:00,71.1,66.4,29.88,SW,217,1.1,1.1,85,0.00,CLR,,0.00,WeatherDisplay:10.37,2013-02-13 02:36:00,
2013-02-12 21:41:00,71.1,66.4,29.88,WSW,238,3.5,3.5,85,0.00,CLR,,0.00,WeatherDisplay:10.37,2013-02-13 02:41:00,
2013-02-12 21:46:00,71.2,66.5,29.89,SW,234,3.5,3.5,85,0.00,CLR,,0.00,WeatherDisplay:10.37,2013-02-13 02:46:00,
2013-02-12 21:51:00,71.3,66.6,29.89,WSW,255,4.6,4.6,85,0.00,CLR,,0.00,WeatherDisplay:10.37,2013-02-13 02:51:00,
2013-02-12 21:56:00,71.3,66.6,29.89,WSW,250,3.0,3.0,85,0.00,CLR,,0.00,WeatherDisplay:10.37,2013-02-13 02:56:00,
2013-02-12 22:01:00,71.3,66.6,29.89,WSW,254,3.5,3.5,85,0.00,CLR,,0.00,WeatherDisplay:10.37,2013-02-13 03:01:00,
2013-02-12 22:06:00,71.4,66.7,29.89,West,262,6.0,6.0,85,0.00,CLR,,0.00,WeatherDisplay:10.37,2013-02-13 03:06:00,
2013-02-12 22:11:00,71.5,66.8,29.88,West,267,3.5,3.5,85,0.00,CLR,,0.00,WeatherDisplay:10.37,2013-02-13 03:11:00,
2013-02-12 22:16:00,71.6,66.8,29.88,SW,223,6.9,6.9,85,0.00,CLR,,0.00,WeatherDisplay:10.37,2013-02-13 03:16:00,
2013-02-12 22:21:00,71.6,66.8,29.88,SSE,150,2.3,2.3,85,0.00,CLR,,0.00,WeatherDisplay:10.37,2013-02-13 03:21:00,
2013-02-12 22:26:00,71.6,66.8,29.88,WSW,242,6.9,6.9,85,0.00,CLR,,0.00,WeatherDisplay:10.37,2013-02-13 03:26:00,
2013-02-12 22:31:00,71.6,66.8,29.88,SSW,207,4.0,4.0,85,0.00,CLR,,0.00,WeatherDisplay:10.37,2013-02-13 03:31:00,
2013-02-12 22:36:00,71.6,66.5,29.88,South,182,3.5,0.0,84,0.00,CLR,,0.00,WeatherDisplay:10.37,2013-02-13 03:36:00,
2013-02-12 22:41:00,71.7,66.6,29.88,South,186,6.9,6.9,84,0.00,CLR,,0.00,WeatherDisplay:10.37,2013-02-13 03:41:00,
2013-02-12 22:46:00,71.6,66.5,29.88,SSW,212,4.6,4.6,84,0.00,CLR,,0.00,WeatherDisplay:10.37,2013-02-13 03:46:00,
2013-02-12 22:51:00,71.7,66.6,29.88,SW,227,3.5,3.5,84,0.00,CLR,,0.00,WeatherDisplay:10.37,2013-02-13 03:51:00,
2013-02-12 22:56:00,71.6,66.5,29.88,WSW,242,5.8,5.8,84,0.00,CLR,,0.00,WeatherDisplay:10.37,2013-02-13 03:56:00,
2013-02-12 23:01:00,71.6,66.5,29.87,WNW,289,5.8,5.8,84,0.00,CLR,,0.00,WeatherDisplay:10.37,2013-02-13 04:01:00,
2013-02-12 23:06:00,71.6,66.8,29.87,SSW,205,8.1,8.1,85,0.00,CLR,,0.00,WeatherDisplay:10.37,2013-02-13 04:06:00,
2013-02-12 23:11:00,71.6,66.8,29.87,SSW,209,3.5,3.5,85,0.00,CLR,,0.00,WeatherDisplay:10.37,2013-02-13 04:11:00,
2013-02-12 23:16:00,71.5,66.8,29.87,WSW,246,5.8,5.8,85,0.00,CLR,,0.00,WeatherDisplay:10.37,2013-02-13 04:16:00,
2013-02-12 23:21:00,71.5,66.8,29.87,WSW,238,3.5,0.0,85,0.00,CLR,,0.00,WeatherDisplay:10.37,2013-02-13 04:21:00,
2013-02-12 23:26:00,71.5,66.8,29.85,South,175,4.0,4.0,85,0.00,CLR,,0.00,WeatherDisplay:10.37,2013-02-13 04:26:00,
2013-02-12 23:31:00,71.4,66.7,29.85,WSW,257,1.1,0.0,85,0.00,CLR,,0.00,WeatherDisplay:10.37,2013-02-13 04:31:00,
2013-02-12 23:36:00,71.4,66.7,29.85,SW,215,2.3,2.3,85,0.00,CLR,,0.00,WeatherDisplay:10.37,2013-02-13 04:36:00,
2013-02-12 23:41:00,71.3,66.6,29.85,SW,233,3.5,3.5,85,0.00,CLR,,0.00,WeatherDisplay:10.37,2013-02-13 04:41:00,
2013-02-12 23:46:00,71.3,66.6,29.85,SSW,198,4.6,4.6,85,0.00,CLR,,0.00,WeatherDisplay:10.37,2013-02-13 04:46:00,
2013-02-12 23:51:00,71.2,66.5,29.85,West,281,3.5,3.5,85,0.00,CLR,,0.00,WeatherDisplay:10.37,2013-02-13 04:51:00,
2013-02-12 23:56:00,71.1,66.7,29.85,WSW,252,2.0,2.0,86,0.00,CLR,,0.00,WeatherDisplay:10.37,2013-02-13 04:56:00,